sensor_id;sensor_type;location;lat;lon;timestamp;temperature;humidity
19397;DHT22;9834;48.076;11.878;2024-01-07T00:00:32;1.00;99.90
19397;DHT22;9834;48.076;11.878;2024-01-07T00:03:14;1.00;99.90
19397;DHT22;9834;48.076;11.878;2024-01-07T00:05:49;1.00;99.90
19397;DHT22;9834;48.076;11.878;2024-01-07T00:08:20;1.00;99.90
19397;DHT22;9834;48.076;11.878;2024-01-07T00:10:57;1.00;99.90
19397;DHT22;9834;48.076;11.878;2024-01-07T00:13:24;1.00;99.90
19397;DHT22;9834;48.076;11.878;2024-01-07T00:16:11;1.00;99.90
19397;DHT22;9834;48.076;11.878;2024-01-07T00:18:42;1.00;99.90
19397;DHT22;9834;48.076;11.878;2024-01-07T00:21:16;1.00;99.90
19397;DHT22;9834;48.076;11.878;2024-01-07T00:23:46;1.00;99.90
19397;DHT22;9834;48.076;11.878;2024-01-07T00:26:14;1.00;99.90
19397;DHT22;9834;48.076;11.878;2024-01-07T00:28:47;1.00;99.90
19397;DHT22;9834;48.076;11.878;2024-01-07T00:31:15;1.00;99.90
19397;DHT22;9834;48.076;11.878;2024-01-07T00:33:43;1.00;99.90
19397;DHT22;9834;48.076;11.878;2024-01-07T00:36:10;1.00;99.90
19397;DHT22;9834;48.076;11.878;2024-01-07T00:38:44;1.00;99.90
19397;DHT22;9834;48.076;11.878;2024-01-07T00:41:14;1.00;99.90
19397;DHT22;9834;48.076;11.878;2024-01-07T00:43:42;1.00;99.90
19397;DHT22;9834;48.076;11.878;2024-01-07T00:46:16;1.00;99.90
19397;DHT22;9834;48.076;11.878;2024-01-07T00:48:43;1.00;99.90
19397;DHT22;9834;48.076;11.878;2024-01-07T00:51:15;1.00;99.90
19397;DHT22;9834;48.076;11.878;2024-01-07T00:53:47;1.00;99.90
19397;DHT22;9834;48.076;11.878;2024-01-07T00:56:19;1.00;99.90
19397;DHT22;9834;48.076;11.878;2024-01-07T00:58:49;1.00;99.90
19397;DHT22;9834;48.076;11.878;2024-01-07T01:01:17;1.00;99.90
19397;DHT22;9834;48.076;11.878;2024-01-07T01:03:44;1.00;99.90
19397;DHT22;9834;48.076;11.878;2024-01-07T01:06:13;1.00;99.90
19397;DHT22;9834;48.076;11.878;2024-01-07T01:08:41;1.00;99.90
19397;DHT22;9834;48.076;11.878;2024-01-07T01:11:13;1.00;99.90
19397;DHT22;9834;48.076;11.878;2024-01-07T01:13:52;1.00;99.90
19397;DHT22;9834;48.076;11.878;2024-01-07T01:16:22;1.00;99.90
19397;DHT22;9834;48.076;11.878;2024-01-07T01:18:53;1.00;99.90
19397;DHT22;9834;48.076;11.878;2024-01-07T01:21:29;1.00;99.90
19397;DHT22;9834;48.076;11.878;2024-01-07T01:24:08;1.10;99.90
19397;DHT22;9834;48.076;11.878;2024-01-07T01:26:44;1.00;99.90
19397;DHT22;9834;48.076;11.878;2024-01-07T01:29:11;1.00;99.90
19397;DHT22;9834;48.076;11.878;2024-01-07T01:31:39;1.00;99.90
19397;DHT22;9834;48.076;11.878;2024-01-07T01:34:09;1.00;99.90
19397;DHT22;9834;48.076;11.878;2024-01-07T01:36:37;1.00;99.90
19397;DHT22;9834;48.076;11.878;2024-01-07T01:39:04;1.00;99.90
19397;DHT22;9834;48.076;11.878;2024-01-07T01:41:35;1.00;99.90
19397;DHT22;9834;48.076;11.878;2024-01-07T01:44:09;0.90;99.90
19397;DHT22;9834;48.076;11.878;2024-01-07T01:46:39;1.00;99.90
19397;DHT22;9834;48.076;11.878;2024-01-07T01:49:07;1.00;99.90
19397;DHT22;9834;48.076;11.878;2024-01-07T01:51:36;1.00;99.90
19397;DHT22;9834;48.076;11.878;2024-01-07T01:54:06;1.00;99.90
19397;DHT22;9834;48.076;11.878;2024-01-07T01:56:40;1.00;99.90
19397;DHT22;9834;48.076;11.878;2024-01-07T01:59:09;1.00;99.90
19397;DHT22;9834;48.076;11.878;2024-01-07T02:01:37;1.00;99.90
19397;DHT22;9834;48.076;11.878;2024-01-07T02:04:09;1.00;99.90
19397;DHT22;9834;48.076;11.878;2024-01-07T02:06:36;1.00;99.90
19397;DHT22;9834;48.076;11.878;2024-01-07T02:09:07;1.00;99.90
19397;DHT22;9834;48.076;11.878;2024-01-07T02:11:34;1.00;99.90
19397;DHT22;9834;48.076;11.878;2024-01-07T02:14:02;1.00;99.90
19397;DHT22;9834;48.076;11.878;2024-01-07T02:16:30;1.00;99.90
19397;DHT22;9834;48.076;11.878;2024-01-07T02:19:12;1.00;99.90
19397;DHT22;9834;48.076;11.878;2024-01-07T02:21:43;1.00;99.90
19397;DHT22;9834;48.076;11.878;2024-01-07T02:24:17;1.00;99.90
19397;DHT22;9834;48.076;11.878;2024-01-07T02:26:44;1.00;99.90
19397;DHT22;9834;48.076;11.878;2024-01-07T02:29:12;1.00;99.90
19397;DHT22;9834;48.076;11.878;2024-01-07T02:31:39;1.00;99.90
19397;DHT22;9834;48.076;11.878;2024-01-07T02:34:09;0.90;99.90
19397;DHT22;9834;48.076;11.878;2024-01-07T02:36:36;0.90;99.90
19397;DHT22;9834;48.076;11.878;2024-01-07T02:39:22;1.00;99.90
19397;DHT22;9834;48.076;11.878;2024-01-07T02:41:50;1.00;99.90
19397;DHT22;9834;48.076;11.878;2024-01-07T02:44:18;1.00;99.90
19397;DHT22;9834;48.076;11.878;2024-01-07T02:46:45;1.00;99.90
19397;DHT22;9834;48.076;11.878;2024-01-07T02:49:13;1.00;99.90
19397;DHT22;9834;48.076;11.878;2024-01-07T02:51:43;1.00;99.90
19397;DHT22;9834;48.076;11.878;2024-01-07T02:54:17;1.00;99.90
19397;DHT22;9834;48.076;11.878;2024-01-07T02:56:47;1.00;99.90
19397;DHT22;9834;48.076;11.878;2024-01-07T02:59:14;1.00;99.90
19397;DHT22;9834;48.076;11.878;2024-01-07T03:01:42;1.00;99.90
19397;DHT22;9834;48.076;11.878;2024-01-07T03:04:17;1.00;99.90
19397;DHT22;9834;48.076;11.878;2024-01-07T03:06:50;1.00;99.90
19397;DHT22;9834;48.076;11.878;2024-01-07T03:09:17;1.00;99.90
19397;DHT22;9834;48.076;11.878;2024-01-07T03:11:48;1.00;99.90
19397;DHT22;9834;48.076;11.878;2024-01-07T03:14:24;1.00;99.90
19397;DHT22;9834;48.076;11.878;2024-01-07T03:17:00;1.00;99.90
19397;DHT22;9834;48.076;11.878;2024-01-07T03:19:34;1.00;99.90
19397;DHT22;9834;48.076;11.878;2024-01-07T03:22:05;1.00;99.90
19397;DHT22;9834;48.076;11.878;2024-01-07T03:24:33;1.00;99.90
19397;DHT22;9834;48.076;11.878;2024-01-07T03:27:06;1.00;99.90
19397;DHT22;9834;48.076;11.878;2024-01-07T03:29:35;1.00;99.90
19397;DHT22;9834;48.076;11.878;2024-01-07T03:32:02;1.00;99.90
19397;DHT22;9834;48.076;11.878;2024-01-07T03:34:33;1.00;99.90
19397;DHT22;9834;48.076;11.878;2024-01-07T03:37:04;1.00;99.90
19397;DHT22;9834;48.076;11.878;2024-01-07T03:39:32;1.00;99.90
19397;DHT22;9834;48.076;11.878;2024-01-07T03:42:02;1.00;99.90
19397;DHT22;9834;48.076;11.878;2024-01-07T03:44:31;1.00;99.90
19397;DHT22;9834;48.076;11.878;2024-01-07T03:46:59;1.00;99.90
19397;DHT22;9834;48.076;11.878;2024-01-07T03:49:27;1.00;99.90
19397;DHT22;9834;48.076;11.878;2024-01-07T03:52:02;1.00;99.90
19397;DHT22;9834;48.076;11.878;2024-01-07T03:54:45;0.90;99.90
19397;DHT22;9834;48.076;11.878;2024-01-07T03:57:31;1.00;99.90
19397;DHT22;9834;48.076;11.878;2024-01-07T04:00:08;1.00;99.90
19397;DHT22;9834;48.076;11.878;2024-01-07T04:02:38;1.00;99.90
19397;DHT22;9834;48.076;11.878;2024-01-07T04:05:06;0.90;99.90
19397;DHT22;9834;48.076;11.878;2024-01-07T04:07:36;1.00;99.90
19397;DHT22;9834;48.076;11.878;2024-01-07T04:10:09;1.00;99.90
19397;DHT22;9834;48.076;11.878;2024-01-07T04:12:41;1.00;99.90
19397;DHT22;9834;48.076;11.878;2024-01-07T04:15:10;1.00;99.90
19397;DHT22;9834;48.076;11.878;2024-01-07T04:17:43;1.00;99.90
19397;DHT22;9834;48.076;11.878;2024-01-07T04:20:13;1.00;99.90
19397;DHT22;9834;48.076;11.878;2024-01-07T04:22:41;1.00;99.90
19397;DHT22;9834;48.076;11.878;2024-01-07T04:25:25;1.00;99.90
19397;DHT22;9834;48.076;11.878;2024-01-07T04:27:55;1.00;99.90
19397;DHT22;9834;48.076;11.878;2024-01-07T04:30:27;1.00;99.90
19397;DHT22;9834;48.076;11.878;2024-01-07T04:32:56;1.00;99.90
19397;DHT22;9834;48.076;11.878;2024-01-07T04:35:31;1.00;99.90
19397;DHT22;9834;48.076;11.878;2024-01-07T04:38:01;1.00;99.90
19397;DHT22;9834;48.076;11.878;2024-01-07T04:40:31;1.00;99.90
19397;DHT22;9834;48.076;11.878;2024-01-07T04:43:04;1.00;99.90
19397;DHT22;9834;48.076;11.878;2024-01-07T04:45:36;1.00;99.90
19397;DHT22;9834;48.076;11.878;2024-01-07T04:48:06;1.00;99.90
19397;DHT22;9834;48.076;11.878;2024-01-07T04:50:34;1.00;99.90
19397;DHT22;9834;48.076;11.878;2024-01-07T04:53:04;1.00;99.90
19397;DHT22;9834;48.076;11.878;2024-01-07T04:55:32;1.00;99.90
19397;DHT22;9834;48.076;11.878;2024-01-07T04:58:10;1.00;99.90
19397;DHT22;9834;48.076;11.878;2024-01-07T05:00:40;1.00;99.90
19397;DHT22;9834;48.076;11.878;2024-01-07T05:03:11;1.00;99.90
19397;DHT22;9834;48.076;11.878;2024-01-07T05:05:38;1.00;99.90
19397;DHT22;9834;48.076;11.878;2024-01-07T05:08:06;1.10;99.90
19397;DHT22;9834;48.076;11.878;2024-01-07T05:10:33;1.00;99.90
19397;DHT22;9834;48.076;11.878;2024-01-07T05:13:01;1.00;99.90
19397;DHT22;9834;48.076;11.878;2024-01-07T05:15:33;1.00;99.90
19397;DHT22;9834;48.076;11.878;2024-01-07T05:18:06;1.00;99.90
19397;DHT22;9834;48.076;11.878;2024-01-07T05:20:39;1.00;99.90
19397;DHT22;9834;48.076;11.878;2024-01-07T05:23:16;1.00;99.90
19397;DHT22;9834;48.076;11.878;2024-01-07T05:25:47;1.00;99.90
19397;DHT22;9834;48.076;11.878;2024-01-07T05:28:14;1.00;99.90
19397;DHT22;9834;48.076;11.878;2024-01-07T05:30:46;1.00;99.90
19397;DHT22;9834;48.076;11.878;2024-01-07T05:33:14;1.00;99.90
19397;DHT22;9834;48.076;11.878;2024-01-07T05:35:51;1.00;99.90
19397;DHT22;9834;48.076;11.878;2024-01-07T05:38:20;1.00;99.90
19397;DHT22;9834;48.076;11.878;2024-01-07T05:40:53;1.00;99.90
19397;DHT22;9834;48.076;11.878;2024-01-07T05:43:20;1.00;99.90
19397;DHT22;9834;48.076;11.878;2024-01-07T05:45:54;1.00;99.90
19397;DHT22;9834;48.076;11.878;2024-01-07T05:48:22;1.00;99.90
19397;DHT22;9834;48.076;11.878;2024-01-07T05:50:52;1.00;99.90
19397;DHT22;9834;48.076;11.878;2024-01-07T05:53:22;1.00;99.90
19397;DHT22;9834;48.076;11.878;2024-01-07T05:55:53;1.00;99.90
19397;DHT22;9834;48.076;11.878;2024-01-07T05:58:26;1.00;99.90
19397;DHT22;9834;48.076;11.878;2024-01-07T06:00:59;1.00;99.90
19397;DHT22;9834;48.076;11.878;2024-01-07T06:03:27;1.00;99.90
19397;DHT22;9834;48.076;11.878;2024-01-07T06:06:01;1.00;99.90
19397;DHT22;9834;48.076;11.878;2024-01-07T06:08:29;1.00;99.90
19397;DHT22;9834;48.076;11.878;2024-01-07T06:10:59;1.00;99.90
19397;DHT22;9834;48.076;11.878;2024-01-07T06:13:27;1.00;99.90
19397;DHT22;9834;48.076;11.878;2024-01-07T06:15:54;1.00;99.90
19397;DHT22;9834;48.076;11.878;2024-01-07T06:18:23;1.00;99.90
19397;DHT22;9834;48.076;11.878;2024-01-07T06:20:50;1.00;99.90
19397;DHT22;9834;48.076;11.878;2024-01-07T06:23:20;1.00;99.90
19397;DHT22;9834;48.076;11.878;2024-01-07T06:25:52;1.00;99.90
19397;DHT22;9834;48.076;11.878;2024-01-07T06:28:19;1.00;99.90
19397;DHT22;9834;48.076;11.878;2024-01-07T06:30:48;1.00;99.90
19397;DHT22;9834;48.076;11.878;2024-01-07T06:33:24;1.00;99.90
19397;DHT22;9834;48.076;11.878;2024-01-07T06:35:57;1.00;99.90
19397;DHT22;9834;48.076;11.878;2024-01-07T06:38:28;1.00;99.90
19397;DHT22;9834;48.076;11.878;2024-01-07T06:40:58;1.00;99.90
19397;DHT22;9834;48.076;11.878;2024-01-07T06:43:27;1.00;99.90
19397;DHT22;9834;48.076;11.878;2024-01-07T06:45:55;1.10;99.90
19397;DHT22;9834;48.076;11.878;2024-01-07T06:48:24;1.00;99.90
19397;DHT22;9834;48.076;11.878;2024-01-07T06:50:58;1.00;99.90
19397;DHT22;9834;48.076;11.878;2024-01-07T06:53:30;1.00;99.90
19397;DHT22;9834;48.076;11.878;2024-01-07T06:55:59;1.00;99.90
19397;DHT22;9834;48.076;11.878;2024-01-07T06:58:29;1.00;99.90
19397;DHT22;9834;48.076;11.878;2024-01-07T07:00:58;1.00;99.90
19397;DHT22;9834;48.076;11.878;2024-01-07T07:03:27;1.00;99.90
19397;DHT22;9834;48.076;11.878;2024-01-07T07:05:54;1.00;99.90
19397;DHT22;9834;48.076;11.878;2024-01-07T07:08:25;1.00;99.90
19397;DHT22;9834;48.076;11.878;2024-01-07T07:11:07;1.00;99.90
19397;DHT22;9834;48.076;11.878;2024-01-07T07:13:38;1.00;99.90
19397;DHT22;9834;48.076;11.878;2024-01-07T07:16:14;1.00;99.90
19397;DHT22;9834;48.076;11.878;2024-01-07T07:18:51;1.10;99.90
19397;DHT22;9834;48.076;11.878;2024-01-07T07:21:19;1.10;99.90
19397;DHT22;9834;48.076;11.878;2024-01-07T07:23:49;1.10;99.90
19397;DHT22;9834;48.076;11.878;2024-01-07T07:26:18;1.10;99.90
19397;DHT22;9834;48.076;11.878;2024-01-07T07:28:47;1.10;99.90
19397;DHT22;9834;48.076;11.878;2024-01-07T07:31:18;1.10;99.90
19397;DHT22;9834;48.076;11.878;2024-01-07T07:33:45;1.10;99.90
19397;DHT22;9834;48.076;11.878;2024-01-07T07:36:17;1.10;99.90
19397;DHT22;9834;48.076;11.878;2024-01-07T07:38:44;1.10;99.90
19397;DHT22;9834;48.076;11.878;2024-01-07T07:41:12;1.10;99.90
19397;DHT22;9834;48.076;11.878;2024-01-07T07:43:42;1.10;99.90
19397;DHT22;9834;48.076;11.878;2024-01-07T07:46:09;1.10;99.90
19397;DHT22;9834;48.076;11.878;2024-01-07T07:48:40;1.10;99.90
19397;DHT22;9834;48.076;11.878;2024-01-07T07:51:08;1.10;99.90
19397;DHT22;9834;48.076;11.878;2024-01-07T07:53:39;1.00;99.90
19397;DHT22;9834;48.076;11.878;2024-01-07T07:56:10;1.20;99.90
19397;DHT22;9834;48.076;11.878;2024-01-07T07:58:37;1.10;99.90
19397;DHT22;9834;48.076;11.878;2024-01-07T08:01:14;1.10;99.90
19397;DHT22;9834;48.076;11.878;2024-01-07T08:03:57;1.10;99.90
19397;DHT22;9834;48.076;11.878;2024-01-07T08:06:28;1.10;99.90
19397;DHT22;9834;48.076;11.878;2024-01-07T08:09:00;1.10;99.90
19397;DHT22;9834;48.076;11.878;2024-01-07T08:11:31;1.10;99.90
19397;DHT22;9834;48.076;11.878;2024-01-07T08:13:58;1.20;99.90
19397;DHT22;9834;48.076;11.878;2024-01-07T08:16:30;1.20;99.90
19397;DHT22;9834;48.076;11.878;2024-01-07T08:19:00;1.20;99.90
19397;DHT22;9834;48.076;11.878;2024-01-07T08:21:35;1.20;99.90
19397;DHT22;9834;48.076;11.878;2024-01-07T08:24:05;1.30;99.90
19397;DHT22;9834;48.076;11.878;2024-01-07T08:26:32;1.30;99.90
19397;DHT22;9834;48.076;11.878;2024-01-07T08:29:02;1.30;99.90
19397;DHT22;9834;48.076;11.878;2024-01-07T08:31:30;1.30;99.90
19397;DHT22;9834;48.076;11.878;2024-01-07T08:33:59;1.40;99.90
19397;DHT22;9834;48.076;11.878;2024-01-07T08:36:38;1.30;99.90
19397;DHT22;9834;48.076;11.878;2024-01-07T08:39:07;1.30;99.90
19397;DHT22;9834;48.076;11.878;2024-01-07T08:41:36;1.30;99.90
19397;DHT22;9834;48.076;11.878;2024-01-07T08:44:04;1.30;99.90
19397;DHT22;9834;48.076;11.878;2024-01-07T08:46:35;1.30;99.90
19397;DHT22;9834;48.076;11.878;2024-01-07T08:49:06;1.30;99.90
19397;DHT22;9834;48.076;11.878;2024-01-07T08:51:33;1.30;99.90
19397;DHT22;9834;48.076;11.878;2024-01-07T08:54:04;1.30;99.90
19397;DHT22;9834;48.076;11.878;2024-01-07T08:56:36;1.40;99.90
19397;DHT22;9834;48.076;11.878;2024-01-07T08:59:08;1.40;99.90
19397;DHT22;9834;48.076;11.878;2024-01-07T09:01:42;1.40;99.90
19397;DHT22;9834;48.076;11.878;2024-01-07T09:04:11;1.40;99.90
19397;DHT22;9834;48.076;11.878;2024-01-07T09:06:41;1.30;99.90
19397;DHT22;9834;48.076;11.878;2024-01-07T09:09:08;1.40;99.90
19397;DHT22;9834;48.076;11.878;2024-01-07T09:11:39;1.40;99.90
19397;DHT22;9834;48.076;11.878;2024-01-07T09:14:07;1.40;99.90
19397;DHT22;9834;48.076;11.878;2024-01-07T09:16:36;1.40;99.90
19397;DHT22;9834;48.076;11.878;2024-01-07T09:19:03;1.40;99.90
19397;DHT22;9834;48.076;11.878;2024-01-07T09:21:31;1.50;99.90
19397;DHT22;9834;48.076;11.878;2024-01-07T09:24:08;1.50;99.90
19397;DHT22;9834;48.076;11.878;2024-01-07T09:26:43;1.50;99.90
19397;DHT22;9834;48.076;11.878;2024-01-07T09:29:18;1.50;99.90
19397;DHT22;9834;48.076;11.878;2024-01-07T09:31:46;1.40;99.90
19397;DHT22;9834;48.076;11.878;2024-01-07T09:34:19;1.50;99.90
19397;DHT22;9834;48.076;11.878;2024-01-07T09:36:47;1.50;99.90
19397;DHT22;9834;48.076;11.878;2024-01-07T09:39:23;1.40;99.90
19397;DHT22;9834;48.076;11.878;2024-01-07T09:42:05;1.40;99.90
19397;DHT22;9834;48.076;11.878;2024-01-07T09:44:32;1.40;99.90
19397;DHT22;9834;48.076;11.878;2024-01-07T09:47:00;1.40;99.90
19397;DHT22;9834;48.076;11.878;2024-01-07T09:49:28;1.40;99.90
19397;DHT22;9834;48.076;11.878;2024-01-07T09:51:59;1.40;99.90
19397;DHT22;9834;48.076;11.878;2024-01-07T09:54:29;1.50;99.90
19397;DHT22;9834;48.076;11.878;2024-01-07T09:57:02;1.50;99.90
19397;DHT22;9834;48.076;11.878;2024-01-07T09:59:34;1.50;99.90
19397;DHT22;9834;48.076;11.878;2024-01-07T10:02:03;1.60;99.90
19397;DHT22;9834;48.076;11.878;2024-01-07T10:04:33;1.60;99.90
19397;DHT22;9834;48.076;11.878;2024-01-07T10:07:01;1.60;99.90
19397;DHT22;9834;48.076;11.878;2024-01-07T10:09:33;1.60;99.90
19397;DHT22;9834;48.076;11.878;2024-01-07T10:12:07;1.70;99.90
19397;DHT22;9834;48.076;11.878;2024-01-07T10:14:36;1.80;99.90
19397;DHT22;9834;48.076;11.878;2024-01-07T10:17:17;1.80;99.90
19397;DHT22;9834;48.076;11.878;2024-01-07T10:19:45;1.80;99.90
19397;DHT22;9834;48.076;11.878;2024-01-07T10:22:16;1.80;99.90
19397;DHT22;9834;48.076;11.878;2024-01-07T10:24:45;1.90;99.90
19397;DHT22;9834;48.076;11.878;2024-01-07T10:27:15;1.80;99.90
19397;DHT22;9834;48.076;11.878;2024-01-07T10:29:47;1.80;99.90
19397;DHT22;9834;48.076;11.878;2024-01-07T10:32:27;1.90;99.90
19397;DHT22;9834;48.076;11.878;2024-01-07T10:35:02;1.90;99.90
19397;DHT22;9834;48.076;11.878;2024-01-07T10:37:30;2.00;99.90
19397;DHT22;9834;48.076;11.878;2024-01-07T10:39:59;2.00;99.90
19397;DHT22;9834;48.076;11.878;2024-01-07T10:42:31;2.00;99.90
19397;DHT22;9834;48.076;11.878;2024-01-07T10:45:14;2.10;99.90
19397;DHT22;9834;48.076;11.878;2024-01-07T10:47:46;2.10;99.90
19397;DHT22;9834;48.076;11.878;2024-01-07T10:50:15;2.10;99.90
19397;DHT22;9834;48.076;11.878;2024-01-07T10:52:43;2.10;99.90
19397;DHT22;9834;48.076;11.878;2024-01-07T10:55:18;2.20;99.90
19397;DHT22;9834;48.076;11.878;2024-01-07T10:57:50;2.10;99.90
19397;DHT22;9834;48.076;11.878;2024-01-07T11:00:22;2.10;99.90
19397;DHT22;9834;48.076;11.878;2024-01-07T11:03:04;2.00;99.90
19397;DHT22;9834;48.076;11.878;2024-01-07T11:05:39;2.10;99.90
19397;DHT22;9834;48.076;11.878;2024-01-07T11:08:18;2.10;99.90
19397;DHT22;9834;48.076;11.878;2024-01-07T11:10:53;2.00;99.90
19397;DHT22;9834;48.076;11.878;2024-01-07T11:13:35;1.90;99.90
19397;DHT22;9834;48.076;11.878;2024-01-07T11:16:06;2.00;99.90
19397;DHT22;9834;48.076;11.878;2024-01-07T11:18:38;2.00;99.90
19397;DHT22;9834;48.076;11.878;2024-01-07T11:21:06;1.90;99.90
19397;DHT22;9834;48.076;11.878;2024-01-07T11:23:35;1.90;99.90
19397;DHT22;9834;48.076;11.878;2024-01-07T11:26:06;1.90;99.90
19397;DHT22;9834;48.076;11.878;2024-01-07T11:28:50;1.90;99.90
19397;DHT22;9834;48.076;11.878;2024-01-07T11:31:46;1.90;99.90
19397;DHT22;9834;48.076;11.878;2024-01-07T11:34:40;1.90;99.90
19397;DHT22;9834;48.076;11.878;2024-01-07T11:37:10;2.00;99.90
19397;DHT22;9834;48.076;11.878;2024-01-07T11:39:41;1.90;99.90
19397;DHT22;9834;48.076;11.878;2024-01-07T11:42:12;2.00;99.90
19397;DHT22;9834;48.076;11.878;2024-01-07T11:44:50;1.90;99.90
19397;DHT22;9834;48.076;11.878;2024-01-07T11:47:20;2.00;99.90
19397;DHT22;9834;48.076;11.878;2024-01-07T11:49:48;2.00;99.90
19397;DHT22;9834;48.076;11.878;2024-01-07T11:52:16;2.10;99.90
19397;DHT22;9834;48.076;11.878;2024-01-07T11:54:47;2.00;99.90
19397;DHT22;9834;48.076;11.878;2024-01-07T11:57:21;2.10;99.90
19397;DHT22;9834;48.076;11.878;2024-01-07T11:59:48;2.10;99.90
19397;DHT22;9834;48.076;11.878;2024-01-07T12:02:21;2.20;99.90
19397;DHT22;9834;48.076;11.878;2024-01-07T12:04:56;2.30;99.90
19397;DHT22;9834;48.076;11.878;2024-01-07T12:07:31;2.30;99.90
19397;DHT22;9834;48.076;11.878;2024-01-07T12:10:07;2.20;99.90
19397;DHT22;9834;48.076;11.878;2024-01-07T12:12:43;2.10;99.90
19397;DHT22;9834;48.076;11.878;2024-01-07T12:15:20;2.10;99.90
19397;DHT22;9834;48.076;11.878;2024-01-07T12:18:00;2.00;99.90
19397;DHT22;9834;48.076;11.878;2024-01-07T12:20:28;2.00;99.90
19397;DHT22;9834;48.076;11.878;2024-01-07T12:22:56;2.00;99.90
19397;DHT22;9834;48.076;11.878;2024-01-07T12:25:28;2.00;99.90
19397;DHT22;9834;48.076;11.878;2024-01-07T12:27:56;1.90;99.90
19397;DHT22;9834;48.076;11.878;2024-01-07T12:30:26;1.90;99.90
19397;DHT22;9834;48.076;11.878;2024-01-07T12:32:56;2.00;99.90
19397;DHT22;9834;48.076;11.878;2024-01-07T12:35:26;2.00;99.90
19397;DHT22;9834;48.076;11.878;2024-01-07T12:38:00;2.00;99.90
19397;DHT22;9834;48.076;11.878;2024-01-07T12:40:27;2.10;99.90
19397;DHT22;9834;48.076;11.878;2024-01-07T12:43:00;2.00;99.90
19397;DHT22;9834;48.076;11.878;2024-01-07T12:45:28;2.00;99.90
19397;DHT22;9834;48.076;11.878;2024-01-07T12:47:57;2.00;99.90
19397;DHT22;9834;48.076;11.878;2024-01-07T12:50:28;2.00;99.90
19397;DHT22;9834;48.076;11.878;2024-01-07T12:53:00;2.00;99.90
19397;DHT22;9834;48.076;11.878;2024-01-07T12:55:27;2.00;99.90
19397;DHT22;9834;48.076;11.878;2024-01-07T12:57:57;2.00;99.90
19397;DHT22;9834;48.076;11.878;2024-01-07T13:00:30;1.90;99.90
19397;DHT22;9834;48.076;11.878;2024-01-07T13:03:05;1.90;99.90
19397;DHT22;9834;48.076;11.878;2024-01-07T13:05:43;1.90;99.90
19397;DHT22;9834;48.076;11.878;2024-01-07T13:08:14;1.90;99.90
19397;DHT22;9834;48.076;11.878;2024-01-07T13:10:43;1.70;99.90
19397;DHT22;9834;48.076;11.878;2024-01-07T13:13:11;1.70;99.90
19397;DHT22;9834;48.076;11.878;2024-01-07T13:15:43;1.60;99.90
19397;DHT22;9834;48.076;11.878;2024-01-07T13:18:22;1.60;99.90
19397;DHT22;9834;48.076;11.878;2024-01-07T13:20:52;1.60;99.90
19397;DHT22;9834;48.076;11.878;2024-01-07T13:23:19;1.60;99.90
19397;DHT22;9834;48.076;11.878;2024-01-07T13:25:49;1.60;99.90
19397;DHT22;9834;48.076;11.878;2024-01-07T13:28:16;1.50;99.90
19397;DHT22;9834;48.076;11.878;2024-01-07T13:30:45;1.40;99.90
19397;DHT22;9834;48.076;11.878;2024-01-07T13:33:18;1.40;99.90
19397;DHT22;9834;48.076;11.878;2024-01-07T13:35:48;1.40;99.90
19397;DHT22;9834;48.076;11.878;2024-01-07T13:38:16;1.40;99.90
19397;DHT22;9834;48.076;11.878;2024-01-07T13:40:43;1.40;99.90
19397;DHT22;9834;48.076;11.878;2024-01-07T13:43:18;1.40;99.90
19397;DHT22;9834;48.076;11.878;2024-01-07T13:45:47;1.40;99.90
19397;DHT22;9834;48.076;11.878;2024-01-07T13:48:16;1.40;99.90
19397;DHT22;9834;48.076;11.878;2024-01-07T13:50:52;1.50;99.90
19397;DHT22;9834;48.076;11.878;2024-01-07T13:53:20;1.50;99.90
19397;DHT22;9834;48.076;11.878;2024-01-07T13:55:54;1.50;99.90
19397;DHT22;9834;48.076;11.878;2024-01-07T13:58:24;1.50;99.90
19397;DHT22;9834;48.076;11.878;2024-01-07T14:00:57;1.40;99.90
19397;DHT22;9834;48.076;11.878;2024-01-07T14:03:27;1.40;99.90
19397;DHT22;9834;48.076;11.878;2024-01-07T14:05:59;1.40;99.90
19397;DHT22;9834;48.076;11.878;2024-01-07T14:08:32;1.40;99.90
19397;DHT22;9834;48.076;11.878;2024-01-07T14:11:02;1.40;99.90
19397;DHT22;9834;48.076;11.878;2024-01-07T14:13:32;1.30;99.90
19397;DHT22;9834;48.076;11.878;2024-01-07T14:16:06;1.30;99.90
19397;DHT22;9834;48.076;11.878;2024-01-07T14:18:38;1.30;99.90
19397;DHT22;9834;48.076;11.878;2024-01-07T14:21:06;1.10;99.90
19397;DHT22;9834;48.076;11.878;2024-01-07T14:23:35;1.10;99.90
19397;DHT22;9834;48.076;11.878;2024-01-07T14:26:12;1.00;99.90
19397;DHT22;9834;48.076;11.878;2024-01-07T14:28:40;1.10;99.90
19397;DHT22;9834;48.076;11.878;2024-01-07T14:31:08;1.10;99.90
19397;DHT22;9834;48.076;11.878;2024-01-07T14:33:40;1.10;99.90
19397;DHT22;9834;48.076;11.878;2024-01-07T14:36:14;1.00;99.90
19397;DHT22;9834;48.076;11.878;2024-01-07T14:38:44;1.00;99.90
19397;DHT22;9834;48.076;11.878;2024-01-07T14:41:14;1.00;99.90
19397;DHT22;9834;48.076;11.878;2024-01-07T14:43:42;1.00;99.90
19397;DHT22;9834;48.076;11.878;2024-01-07T14:46:10;0.90;99.90
19397;DHT22;9834;48.076;11.878;2024-01-07T14:48:44;0.90;99.90
19397;DHT22;9834;48.076;11.878;2024-01-07T14:51:14;0.90;99.90
19397;DHT22;9834;48.076;11.878;2024-01-07T14:53:42;0.90;99.90
19397;DHT22;9834;48.076;11.878;2024-01-07T14:56:10;0.90;99.90
19397;DHT22;9834;48.076;11.878;2024-01-07T14:58:37;0.90;99.90
19397;DHT22;9834;48.076;11.878;2024-01-07T15:01:13;0.90;99.90
19397;DHT22;9834;48.076;11.878;2024-01-07T15:03:44;0.90;99.90
19397;DHT22;9834;48.076;11.878;2024-01-07T15:06:13;0.90;99.90
19397;DHT22;9834;48.076;11.878;2024-01-07T15:08:41;0.90;99.90
19397;DHT22;9834;48.076;11.878;2024-01-07T15:11:09;0.90;99.90
19397;DHT22;9834;48.076;11.878;2024-01-07T15:13:37;0.90;99.90
19397;DHT22;9834;48.076;11.878;2024-01-07T15:16:05;0.90;99.90
19397;DHT22;9834;48.076;11.878;2024-01-07T15:18:33;0.80;99.90
19397;DHT22;9834;48.076;11.878;2024-01-07T15:21:02;0.80;99.90
19397;DHT22;9834;48.076;11.878;2024-01-07T15:23:32;0.80;99.90
19397;DHT22;9834;48.076;11.878;2024-01-07T15:26:00;0.80;99.90
19397;DHT22;9834;48.076;11.878;2024-01-07T15:28:30;0.80;99.90
19397;DHT22;9834;48.076;11.878;2024-01-07T15:31:01;0.70;99.90
19397;DHT22;9834;48.076;11.878;2024-01-07T15:33:30;0.70;99.90
19397;DHT22;9834;48.076;11.878;2024-01-07T15:36:08;0.70;99.90
19397;DHT22;9834;48.076;11.878;2024-01-07T15:38:36;0.60;99.90
19397;DHT22;9834;48.076;11.878;2024-01-07T15:41:08;0.60;99.90
19397;DHT22;9834;48.076;11.878;2024-01-07T15:43:36;0.70;99.90
19397;DHT22;9834;48.076;11.878;2024-01-07T15:46:07;0.70;99.90
19397;DHT22;9834;48.076;11.878;2024-01-07T15:48:35;0.60;99.90
19397;DHT22;9834;48.076;11.878;2024-01-07T15:51:08;0.60;99.90
19397;DHT22;9834;48.076;11.878;2024-01-07T15:53:37;0.60;99.90
19397;DHT22;9834;48.076;11.878;2024-01-07T15:56:09;0.60;99.90
19397;DHT22;9834;48.076;11.878;2024-01-07T15:58:46;0.60;99.90
19397;DHT22;9834;48.076;11.878;2024-01-07T16:01:17;0.60;99.90
19397;DHT22;9834;48.076;11.878;2024-01-07T16:03:50;0.60;99.90
19397;DHT22;9834;48.076;11.878;2024-01-07T16:06:22;0.60;99.90
19397;DHT22;9834;48.076;11.878;2024-01-07T16:08:49;0.60;99.90